Time;durP1;ratioP1;P1;durP2;ratioP2;P2;SDS_P1;SDS_P2;PMS_P1;PMS_P2;Temp;Humidity;BMP_temperature;BMP_pressure;BME280_temperature;BME280_humidity;BME280_pressure;Samples;Min_cycle;Max_cycle;Signal;HPM_P1;HPM_P2
2024/04/11 00:02:16;;;;;;;1.30;0.60;;;10.20;99.90;;;;;;5505511;26;20012;-70
2024/04/11 00:04:42;;;;;;;0.75;0.47;;;10.30;99.90;;;;;;5507386;25;20077;-70
2024/04/11 00:07:08;;;;;;;1.30;0.50;;;10.10;99.90;;;;;;5506428;26;21585;-70
2024/04/11 00:09:34;;;;;;;4.88;0.60;;;10.30;99.90;;;;;;5506396;26;20005;-70
2024/04/11 00:11:59;;;;;;;1.65;0.57;;;10.40;99.90;;;;;;5506991;26;19997;-70
2024/04/11 00:14:25;;;;;;;1.65;0.43;;;10.30;99.90;;;;;;5504006;26;20606;-70
2024/04/11 00:16:52;;;;;;;2.75;0.52;;;10.20;99.90;;;;;;5506551;25;19990;-70
2024/04/11 00:19:17;;;;;;;1.25;0.65;;;10.00;99.90;;;;;;5504723;26;20096;-70
2024/04/11 00:21:43;;;;;;;1.63;0.60;;;9.90;99.90;;;;;;5505467;26;20447;-70
2024/04/11 00:24:08;;;;;;;0.65;0.40;;;9.90;99.90;;;;;;5506678;26;20448;-70
2024/04/11 00:26:34;;;;;;;3.05;0.50;;;9.70;99.90;;;;;;5504765;26;20001;-70
2024/04/11 00:29:00;;;;;;;0.82;0.50;;;9.60;99.90;;;;;;5506641;25;20012;-70
2024/04/11 00:31:26;;;;;;;3.72;0.50;;;9.70;99.90;;;;;;5504815;26;20012;-70
2024/04/11 00:34:12;;;;;;;1.98;0.55;;;9.90;99.90;;;;;;5507150;26;20001;-70
2024/04/11 00:36:41;;;;;;;2.10;0.77;;;9.90;99.90;;;;;;5505524;25;20017;-70
2024/04/11 00:39:08;;;;;;;1.60;0.52;;;9.80;99.90;;;;;;5505948;25;20024;-70
2024/04/11 00:41:33;;;;;;;0.50;0.35;;;9.70;99.90;;;;;;5505324;25;20020;-70
2024/04/11 00:43:59;;;;;;;1.45;0.50;;;9.80;99.90;;;;;;5502545;26;20009;-70
2024/04/11 00:46:27;;;;;;;1.33;0.50;;;9.70;99.90;;;;;;5505451;26;20024;-70
2024/04/11 00:48:54;;;;;;;1.75;0.52;;;9.80;99.90;;;;;;5504310;26;20467;-70
2024/04/11 00:51:21;;;;;;;1.10;0.40;;;10.00;99.90;;;;;;5498997;25;20016;-70
2024/04/11 00:53:48;;;;;;;1.58;0.50;;;10.30;99.90;;;;;;5500938;26;19998;-70
2024/04/11 00:56:14;;;;;;;0.63;0.30;;;10.30;99.90;;;;;;5506794;25;20822;-70
2024/04/11 00:58:41;;;;;;;1.65;0.60;;;10.10;99.90;;;;;;5504055;26;20007;-70
2024/04/11 01:01:06;;;;;;;3.67;0.77;;;10.00;99.90;;;;;;5504178;25;20065;-70
2024/04/11 01:03:32;;;;;;;1.42;0.60;;;9.90;99.90;;;;;;5501275;26;20099;-70
2024/04/11 01:05:58;;;;;;;1.58;0.60;;;10.10;99.90;;;;;;5506841;25;20012;-70
2024/04/11 01:08:27;;;;;;;1.27;0.60;;;10.10;99.90;;;;;;5503558;25;20528;-70
2024/04/11 01:10:53;;;;;;;1.50;0.70;;;10.20;99.90;;;;;;5506730;26;20049;-70
2024/04/11 01:13:20;;;;;;;3.55;0.80;;;10.20;99.90;;;;;;5500241;26;20006;-70
2024/04/11 01:15:47;;;;;;;0.68;0.35;;;10.20;99.90;;;;;;5503778;25;20001;-70
2024/04/11 01:18:13;;;;;;;1.10;0.43;;;10.20;99.90;;;;;;5506334;25;20010;-70
2024/04/11 01:20:38;;;;;;;1.63;0.60;;;10.30;99.90;;;;;;5505409;25;19998;-70
2024/04/11 01:23:07;;;;;;;1.10;0.50;;;10.20;99.90;;;;;;5503734;26;20013;-70
2024/04/11 01:25:33;;;;;;;1.13;0.45;;;10.20;99.90;;;;;;5503737;25;20019;-70
2024/04/11 01:27:59;;;;;;;1.23;0.45;;;10.30;99.90;;;;;;5503523;26;20001;-70
2024/04/11 01:30:28;;;;;;;1.27;0.50;;;10.40;99.90;;;;;;5503530;26;20012;-70
2024/04/11 01:33:00;;;;;;;1.52;0.35;;;10.30;99.90;;;;;;5504471;26;20628;-70
2024/04/11 01:35:30;;;;;;;1.10;0.55;;;10.30;99.90;;;;;;5505290;26;20002;-70
2024/04/11 01:37:59;;;;;;;1.60;0.77;;;10.10;99.90;;;;;;5504412;25;20005;-70
2024/04/11 01:40:35;;;;;;;2.47;0.70;;;10.00;99.90;;;;;;5504766;25;20015;-70
2024/04/11 01:43:01;;;;;;;1.38;0.68;;;10.10;99.90;;;;;;5502995;25;20098;-70
2024/04/11 01:45:27;;;;;;;1.10;0.47;;;10.20;99.90;;;;;;5507470;25;20112;-70
2024/04/11 01:47:53;;;;;;;0.98;0.40;;;10.20;99.90;;;;;;5504112;26;20086;-70
2024/04/11 01:50:19;;;;;;;1.38;0.52;;;10.10;99.90;;;;;;5503713;25;20006;-70
2024/04/11 01:52:45;;;;;;;1.33;0.60;;;10.10;99.90;;;;;;5504682;25;20061;-70
2024/04/11 01:55:11;;;;;;;3.50;0.50;;;10.20;99.90;;;;;;5506001;25;20006;-70
2024/04/11 01:57:37;;;;;;;0.73;0.35;;;10.10;99.90;;;;;;5504404;25;20043;-70
2024/04/11 02:00:12;;;;;;;1.80;0.38;;;10.20;99.90;;;;;;5502368;25;20016;-70
2024/04/11 02:02:44;;;;;;;0.77;0.35;;;10.10;99.90;;;;;;5502568;25;20468;-71
2024/04/11 02:05:14;;;;;;;0.90;0.40;;;10.10;99.90;;;;;;5505634;26;20605;-70
2024/04/11 02:07:40;;;;;;;1.55;0.50;;;10.10;99.90;;;;;;5505866;25;20764;-70
2024/04/11 02:10:06;;;;;;;1.00;0.50;;;10.20;99.90;;;;;;5504134;26;20001;-70
2024/04/11 02:12:32;;;;;;;0.63;0.35;;;10.10;99.90;;;;;;5506966;25;19997;-70
2024/04/11 02:14:58;;;;;;;0.95;0.40;;;10.00;99.90;;;;;;5507084;26;20067;-70
2024/04/11 02:17:24;;;;;;;1.35;0.50;;;9.90;99.90;;;;;;5506629;25;20041;-70
2024/04/11 02:19:50;;;;;;;0.55;0.30;;;9.80;99.90;;;;;;5508731;25;20120;-70
2024/04/11 02:22:17;;;;;;;1.02;0.60;;;9.80;99.90;;;;;;5506114;26;20483;-70
2024/04/11 02:24:43;;;;;;;1.48;0.50;;;10.00;99.90;;;;;;5508876;25;20034;-70
2024/04/11 02:27:09;;;;;;;0.75;0.40;;;10.00;99.90;;;;;;5507729;26;20479;-70
2024/04/11 02:29:35;;;;;;;0.90;0.50;;;10.00;99.90;;;;;;5508188;26;20001;-70
2024/04/11 02:32:02;;;;;;;1.23;0.55;;;9.90;99.90;;;;;;5506589;25;20037;-70
2024/04/11 02:34:29;;;;;;;1.77;0.70;;;9.90;99.90;;;;;;5507499;25;19994;-69
2024/04/11 02:36:55;;;;;;;4.78;0.85;;;9.80;99.90;;;;;;5508841;25;20463;-70
2024/04/11 02:39:21;;;;;;;2.33;0.60;;;9.80;99.90;;;;;;5507340;25;20396;-70
2024/04/11 02:41:47;;;;;;;2.72;0.60;;;9.80;99.90;;;;;;5502887;26;20006;-70
2024/04/11 02:44:14;;;;;;;0.93;0.45;;;9.70;99.90;;;;;;5506411;26;20009;-70
2024/04/11 02:46:39;;;;;;;1.00;0.40;;;9.40;99.90;;;;;;5507515;25;20077;-70
2024/04/11 02:49:05;;;;;;;1.08;0.40;;;9.40;99.90;;;;;;5507305;26;20030;-70
2024/04/11 02:51:32;;;;;;;3.70;1.13;;;9.40;99.90;;;;;;5504060;26;20005;-70
2024/04/11 02:53:58;;;;;;;1.55;0.65;;;9.60;99.90;;;;;;5505633;25;20005;-70
2024/04/11 02:56:26;;;;;;;1.13;0.50;;;9.60;99.90;;;;;;5508488;26;20005;-70
2024/04/11 02:58:55;;;;;;;1.13;0.52;;;9.40;99.90;;;;;;5507463;26;20668;-70
2024/04/11 03:01:21;;;;;;;1.88;0.75;;;9.40;99.90;;;;;;5504266;25;20764;-70
2024/04/11 03:03:47;;;;;;;1.42;0.63;;;9.60;99.90;;;;;;5498555;26;20031;-70
2024/04/11 03:06:21;;;;;;;1.48;0.52;;;9.40;99.90;;;;;;5500018;25;20013;-70
2024/04/11 03:08:55;;;;;;;0.98;0.50;;;9.40;99.90;;;;;;5496019;25;20009;-70
2024/04/11 03:11:23;;;;;;;;;;;9.20;99.90;;;;;;5499880;25;20466;-70
2024/04/11 03:13:50;;;;;;;3.67;0.70;;;9.40;99.90;;;;;;5498489;26;20004;-71
2024/04/11 03:16:15;;;;;;;0.95;0.50;;;9.40;99.90;;;;;;5500249;25;20474;-71
2024/04/11 03:18:41;;;;;;;1.38;0.50;;;9.30;99.90;;;;;;5492836;26;20001;-70
2024/04/11 03:21:07;;;;;;;0.75;0.40;;;9.30;99.90;;;;;;5496005;26;20009;-70
2024/04/11 03:23:33;;;;;;;2.33;1.17;;;9.30;99.90;;;;;;5497417;26;20657;-70
2024/04/11 03:25:59;;;;;;;1.42;0.60;;;9.20;99.90;;;;;;5499072;25;20009;-71
2024/04/11 03:28:25;;;;;;;1.95;0.85;;;9.20;99.90;;;;;;5499783;26;20016;-70
2024/04/11 03:31:04;;;;;;;1.30;0.57;;;9.20;99.90;;;;;;5500829;26;20001;-70
2024/04/11 03:33:33;;;;;;;1.75;0.60;;;9.10;99.90;;;;;;5500892;26;20090;-70
2024/04/11 03:36:00;;;;;;;0.90;0.47;;;9.20;99.90;;;;;;5500230;25;20441;-70
2024/04/11 03:38:28;;;;;;;2.05;0.70;;;9.00;99.90;;;;;;5496318;25;20005;-70
2024/04/11 03:41:05;;;;;;;0.93;0.40;;;8.90;99.90;;;;;;5497743;25;20009;-70
2024/04/11 03:43:38;;;;;;;1.48;0.60;;;8.90;99.90;;;;;;5495873;25;20119;-71
2024/04/11 03:46:11;;;;;;;1.60;0.63;;;9.20;99.90;;;;;;5497628;25;20009;-70
2024/04/11 03:48:38;;;;;;;1.45;0.50;;;9.30;99.90;;;;;;5493249;26;20095;-70
2024/04/11 03:51:19;;;;;;;5.07;0.90;;;9.30;99.90;;;;;;5495776;25;20009;-70
2024/04/11 03:53:45;;;;;;;2.00;0.90;;;9.40;99.90;;;;;;5496768;25;20013;-70
2024/04/11 03:56:14;;;;;;;1.15;0.50;;;9.50;99.90;;;;;;5496899;25;20197;-70
2024/04/11 03:58:41;;;;;;;2.28;0.50;;;9.40;99.90;;;;;;5493161;26;20764;-70
2024/04/11 04:01:12;;;;;;;2.72;0.50;;;9.10;99.90;;;;;;5495977;25;20016;-70
2024/04/11 04:03:41;;;;;;;1.25;0.60;;;8.90;99.90;;;;;;5494612;25;20076;-70
2024/04/11 04:06:08;;;;;;;1.95;0.50;;;8.80;99.90;;;;;;5496538;26;20005;-70
2024/04/11 04:08:35;;;;;;;1.20;0.30;;;8.60;99.90;;;;;;5493549;25;20009;-70
2024/04/11 04:11:00;;;;;;;1.63;0.65;;;8.40;99.90;;;;;;5495576;25;20044;-70
2024/04/11 04:13:27;;;;;;;1.70;0.68;;;8.80;99.90;;;;;;5495202;26;20098;-70
2024/04/11 04:15:56;;;;;;;1.35;0.60;;;9.10;99.90;;;;;;5495365;26;20005;-70
2024/04/11 04:18:22;;;;;;;1.60;0.63;;;9.20;99.90;;;;;;5495284;26;20001;-70
2024/04/11 04:20:57;;;;;;;2.90;0.57;;;9.30;99.90;;;;;;5494304;26;21635;-70
2024/04/11 04:23:24;;;;;;;1.45;0.65;;;9.10;99.90;;;;;;5494780;25;19997;-70
2024/04/11 04:25:59;;;;;;;3.35;0.57;;;8.90;99.90;;;;;;5488034;26;20017;-70
2024/04/11 04:28:32;;;;;;;1.67;0.80;;;8.90;99.90;;;;;;5495192;25;20005;-70
2024/04/11 04:31:21;;;;;;;0.85;0.52;;;9.00;99.90;;;;;;5496866;25;20443;-70
2024/04/11 04:33:54;;;;;;;2.75;1.05;;;8.90;99.90;;;;;;5489845;26;20005;-71
2024/04/11 04:36:28;;;;;;;1.60;0.80;;;8.80;99.90;;;;;;5495052;25;20084;-71
2024/04/11 04:38:58;;;;;;;2.45;0.55;;;8.60;99.90;;;;;;5495162;25;20804;-71
2024/04/11 04:41:29;;;;;;;1.63;0.40;;;8.70;99.90;;;;;;5497428;25;20005;-71
2024/04/11 04:43:55;;;;;;;1.15;0.50;;;8.70;99.90;;;;;;5495237;25;20001;-70
2024/04/11 04:46:26;;;;;;;3.65;1.55;;;8.80;99.90;;;;;;5493488;26;20020;-70
2024/04/11 04:48:52;;;;;;;3.58;1.02;;;8.90;99.90;;;;;;5494247;26;20012;-70
2024/04/11 04:51:21;;;;;;;1.00;0.40;;;8.50;99.90;;;;;;5493174;25;20005;-70
2024/04/11 04:53:50;;;;;;;2.70;1.05;;;8.40;99.90;;;;;;5492363;25;20001;-71
2024/04/11 04:56:18;;;;;;;2.13;0.93;;;8.50;99.90;;;;;;5496233;25;20440;-70
2024/04/11 04:58:44;;;;;;;1.52;0.70;;;8.50;99.90;;;;;;5494618;25;20013;-70
2024/04/11 05:01:10;;;;;;;1.45;0.57;;;8.70;99.90;;;;;;5484726;25;20001;-70
2024/04/11 05:03:38;;;;;;;1.25;0.52;;;8.70;99.90;;;;;;5483091;25;20020;-70
2024/04/11 05:06:07;;;;;;;5.25;0.88;;;8.90;99.90;;;;;;5494853;26;20009;-71
2024/04/11 05:08:33;;;;;;;0.93;0.50;;;9.00;99.90;;;;;;5493703;25;20463;-70
2024/04/11 05:11:00;;;;;;;2.35;0.80;;;8.90;99.90;;;;;;5495631;25;20008;-70
2024/04/11 05:13:32;;;;;;;2.63;0.60;;;8.90;99.90;;;;;;5482122;26;19994;-70
2024/04/11 05:15:58;;;;;;;1.80;0.65;;;8.80;99.90;;;;;;5496167;25;20006;-70
2024/04/11 05:18:23;;;;;;;1.42;0.68;;;8.40;99.90;;;;;;5495685;25;20013;-70
2024/04/11 05:20:51;;;;;;;2.15;0.82;;;8.50;99.90;;;;;;5493537;26;20013;-70
2024/04/11 05:23:17;;;;;;;1.38;0.40;;;8.60;99.90;;;;;;5488202;26;20084;-70
2024/04/11 05:25:43;;;;;;;2.05;0.80;;;8.80;99.90;;;;;;5495275;26;19998;-70
2024/04/11 05:28:09;;;;;;;1.75;0.70;;;8.70;99.90;;;;;;5494225;26;19997;-70
2024/04/11 05:30:40;;;;;;;1.92;0.98;;;9.00;99.90;;;;;;5493215;26;20452;-70
2024/04/11 05:33:08;;;;;;;2.38;0.90;;;9.00;99.90;;;;;;5493087;25;20443;-70
2024/04/11 05:35:39;;;;;;;1.40;0.50;;;9.10;99.90;;;;;;5495138;26;20005;-70
2024/04/11 05:38:08;;;;;;;2.15;0.60;;;9.20;99.90;;;;;;5492986;26;20016;-70
2024/04/11 05:40:36;;;;;;;2.20;0.70;;;9.20;99.90;;;;;;5492644;25;20018;-70
2024/04/11 05:43:06;;;;;;;3.20;0.75;;;9.30;99.90;;;;;;5492105;25;20036;-70
2024/04/11 05:45:33;;;;;;;1.73;0.60;;;9.40;99.90;;;;;;5492929;25;20041;-70
2024/04/11 05:48:00;;;;;;;3.20;0.63;;;9.40;99.90;;;;;;5491913;25;20001;-70
2024/04/11 05:50:26;;;;;;;1.92;0.68;;;9.30;99.90;;;;;;5488379;25;20367;-70
2024/04/11 05:52:52;;;;;;;1.25;0.60;;;9.30;99.90;;;;;;5494851;26;20013;-70
2024/04/11 05:55:18;;;;;;;1.85;1.00;;;9.40;99.90;;;;;;5495036;25;20009;-70
2024/04/11 05:57:44;;;;;;;1.33;0.45;;;9.50;99.90;;;;;;5491022;26;20004;-70
2024/04/11 06:00:11;;;;;;;2.00;0.80;;;9.50;99.90;;;;;;5493560;25;20012;-70
2024/04/11 06:02:41;;;;;;;2.40;0.70;;;9.40;99.90;;;;;;5492894;26;20006;-70
2024/04/11 06:05:07;;;;;;;3.55;0.93;;;9.30;99.90;;;;;;5494788;25;20881;-70
2024/04/11 06:07:35;;;;;;;1.65;0.57;;;9.40;99.90;;;;;;5496925;25;20630;-71
2024/04/11 06:10:04;;;;;;;0.90;0.43;;;9.40;99.90;;;;;;5495033;25;20016;-71
2024/04/11 06:12:33;;;;;;;1.60;0.60;;;9.40;99.90;;;;;;5492703;26;20033;-71
2024/04/11 06:14:59;;;;;;;1.08;0.57;;;9.50;99.90;;;;;;5490344;26;20317;-71
2024/04/11 06:17:27;;;;;;;3.10;0.82;;;9.50;99.90;;;;;;5493075;26;20020;-70
2024/04/11 06:19:54;;;;;;;2.90;0.80;;;9.70;99.90;;;;;;5488057;26;20001;-70
2024/04/11 06:22:20;;;;;;;3.95;0.77;;;9.70;99.90;;;;;;5487196;25;20447;-70
2024/04/11 06:24:46;;;;;;;4.03;0.47;;;9.80;99.90;;;;;;5490247;26;20013;-70
2024/04/11 06:27:12;;;;;;;0.98;0.40;;;9.90;99.90;;;;;;5486739;26;20376;-70
2024/04/11 06:29:39;;;;;;;0.80;0.40;;;9.80;99.90;;;;;;5492968;26;20013;-70
2024/04/11 06:32:12;;;;;;;1.92;0.60;;;9.90;99.90;;;;;;5488981;25;20721;-70
2024/04/11 06:34:43;;;;;;;3.88;0.65;;;9.90;99.90;;;;;;5491138;26;20017;-70
2024/04/11 06:37:12;;;;;;;0.55;0.40;;;10.00;99.90;;;;;;5487527;26;20020;-70
2024/04/11 06:39:38;;;;;;;1.08;0.63;;;10.00;99.90;;;;;;5491746;25;20016;-70
2024/04/11 06:42:13;;;;;;;1.60;0.50;;;10.10;99.90;;;;;;5490423;25;21330;-70
2024/04/11 06:44:45;;;;;;;1.08;0.52;;;10.40;99.90;;;;;;5490088;26;20439;-71
2024/04/11 06:47:13;;;;;;;1.10;0.50;;;10.80;99.90;;;;;;5485034;25;20005;-71
2024/04/11 06:49:39;;;;;;;1.20;0.50;;;11.50;99.90;;;;;;5487295;26;20005;-71
2024/04/11 06:52:05;;;;;;;2.75;0.43;;;12.50;99.90;;;;;;5487510;26;20483;-71
2024/04/11 06:54:33;;;;;;;1.48;0.52;;;13.20;99.90;;;;;;5493270;26;20005;-71
2024/04/11 06:57:00;;;;;;;4.38;0.95;;;14.00;99.40;;;;;;5484357;25;20037;-72
2024/04/11 06:59:26;;;;;;;1.67;0.40;;;14.70;98.50;;;;;;5486711;26;20007;-71
2024/04/11 07:01:52;;;;;;;1.88;0.28;;;14.70;97.80;;;;;;5490295;25;20001;-72
2024/04/11 07:04:18;;;;;;;1.05;0.47;;;14.60;97.60;;;;;;5493929;26;19993;-71
2024/04/11 07:06:48;;;;;;;1.75;0.50;;;14.40;97.80;;;;;;5474123;26;20551;-72
2024/04/11 07:09:14;;;;;;;1.30;0.50;;;14.30;97.60;;;;;;5490812;25;20002;-71
2024/04/11 07:11:41;;;;;;;2.83;0.60;;;15.00;97.40;;;;;;5486970;26;20733;-72
2024/04/11 07:14:15;;;;;;;1.23;0.50;;;14.50;97.60;;;;;;5488476;26;20416;-71
2024/04/11 07:16:44;;;;;;;1.60;0.57;;;14.90;97.40;;;;;;5489634;26;20001;-71
2024/04/11 07:19:11;;;;;;;0.63;0.43;;;14.80;97.40;;;;;;5488915;26;19994;-71
2024/04/11 07:21:38;;;;;;;3.10;0.77;;;14.30;97.50;;;;;;5485141;26;20052;-71
2024/04/11 07:24:05;;;;;;;2.40;0.30;;;14.60;97.80;;;;;;5493866;25;20426;-71
2024/04/11 07:26:32;;;;;;;1.15;0.45;;;14.90;96.70;;;;;;5495044;25;20020;-72
2024/04/11 07:29:03;;;;;;;4.70;0.75;;;14.60;96.00;;;;;;5490463;26;20081;-72
2024/04/11 07:31:31;;;;;;;1.80;0.70;;;13.30;98.10;;;;;;5489971;25;20371;-71
2024/04/11 07:33:59;;;;;;;1.83;0.68;;;12.60;99.90;;;;;;5488636;26;20017;-71
2024/04/11 07:36:25;;;;;;;1.20;0.65;;;12.30;99.90;;;;;;5489641;26;20106;-71
2024/04/11 07:38:53;;;;;;;1.58;0.57;;;11.80;99.90;;;;;;5491470;25;20005;-72
2024/04/11 07:41:23;;;;;;;2.20;0.80;;;11.90;99.90;;;;;;5491943;26;20450;-71
2024/04/11 07:43:55;;;;;;;1.05;0.50;;;12.10;99.90;;;;;;5490123;26;20019;-72
2024/04/11 07:46:28;;;;;;;2.33;0.70;;;12.00;99.90;;;;;;5491527;25;19997;-72
2024/04/11 07:48:55;;;;;;;1.05;0.50;;;12.00;99.90;;;;;;5488689;26;20063;-71
2024/04/11 07:51:21;;;;;;;1.90;0.70;;;11.90;99.90;;;;;;5491830;26;20033;-71
2024/04/11 07:53:48;;;;;;;2.53;0.60;;;12.00;99.90;;;;;;5490526;25;20005;-71
2024/04/11 07:56:21;;;;;;;2.30;0.95;;;12.00;99.90;;;;;;5491210;25;20020;-72
2024/04/11 07:58:55;;;;;;;1.33;0.50;;;12.00;99.90;;;;;;5492252;25;20005;-71
2024/04/11 08:01:31;;;;;;;2.85;0.50;;;12.10;99.90;;;;;;5490983;26;20023;-71
2024/04/11 08:04:01;;;;;;;2.72;0.95;;;12.10;99.90;;;;;;5490651;25;20008;-71
2024/04/11 08:06:31;;;;;;;1.05;0.50;;;12.20;99.90;;;;;;5490558;26;20002;-72
2024/04/11 08:08:57;;;;;;;0.52;0.35;;;12.30;99.90;;;;;;5489275;26;20046;-71
2024/04/11 08:11:23;;;;;;;1.15;0.60;;;12.20;99.90;;;;;;5491033;26;20006;-71
2024/04/11 08:13:52;;;;;;;1.45;0.55;;;12.10;99.90;;;;;;5491785;25;20163;-72
2024/04/11 08:16:18;;;;;;;1.80;0.85;;;12.30;99.90;;;;;;5491744;25;20009;-72
2024/04/11 08:18:45;;;;;;;2.10;0.70;;;12.20;99.90;;;;;;5489969;26;20001;-71
2024/04/11 08:21:13;;;;;;;1.27;0.52;;;12.40;99.90;;;;;;5491831;26;20009;-72
2024/04/11 08:23:39;;;;;;;5.03;0.55;;;12.40;99.90;;;;;;5490721;25;20247;-72
2024/04/11 08:26:05;;;;;;;1.40;0.60;;;12.60;99.90;;;;;;5488794;25;20009;-71
2024/04/11 08:28:37;;;;;;;0.95;0.50;;;12.90;99.90;;;;;;5487695;26;20013;-71
2024/04/11 08:31:03;;;;;;;2.70;0.60;;;13.10;99.90;;;;;;5491959;25;20495;-72
2024/04/11 08:33:29;;;;;;;1.48;0.50;;;13.20;99.90;;;;;;5486918;25;20058;-73
2024/04/11 08:35:57;;;;;;;1.42;0.70;;;13.00;99.90;;;;;;5486687;26;20033;-72
2024/04/11 08:38:23;;;;;;;1.38;0.60;;;12.90;99.90;;;;;;5487656;25;20016;-71
2024/04/11 08:40:49;;;;;;;4.18;0.95;;;13.00;99.90;;;;;;5489508;25;19998;-71
2024/04/11 08:43:20;;;;;;;1.65;0.57;;;12.90;99.90;;;;;;5487187;26;21194;-71
2024/04/11 08:45:46;;;;;;;3.03;0.77;;;13.10;99.90;;;;;;5489983;25;20013;-72
2024/04/11 08:48:12;;;;;;;1.70;0.65;;;13.20;99.90;;;;;;5487351;25;20009;-71
2024/04/11 08:50:45;;;;;;;3.95;0.77;;;14.40;99.90;;;;;;5490337;25;20034;-71
2024/04/11 08:53:17;;;;;;;1.67;0.98;;;15.50;98.80;;;;;;5490764;25;20001;-72
2024/04/11 08:55:43;;;;;;;2.42;0.73;;;15.90;97.40;;;;;;5489534;26;20009;-71
2024/04/11 08:58:08;;;;;;;1.60;0.60;;;16.70;97.60;;;;;;5490517;26;20016;-71
2024/04/11 09:00:42;;;;;;;0.85;0.47;;;17.30;96.80;;;;;;5490658;25;20005;-71
2024/04/11 09:03:13;;;;;;;1.75;0.65;;;17.40;97.50;;;;;;5487953;26;20664;-71
2024/04/11 09:05:38;;;;;;;0.77;0.40;;;17.60;96.70;;;;;;5487326;26;20342;-72
2024/04/11 09:08:05;;;;;;;1.20;0.60;;;18.10;96.00;;;;;;5484022;26;20586;-71
2024/04/11 09:10:31;;;;;;;2.10;0.88;;;17.80;96.80;;;;;;5487543;25;20557;-71
2024/04/11 09:12:59;;;;;;;2.00;0.50;;;17.50;96.20;;;;;;5488663;25;20009;-72
2024/04/11 09:15:25;;;;;;;0.95;0.40;;;18.30;96.10;;;;;;5490256;25;20015;-71
2024/04/11 09:17:55;;;;;;;2.05;0.63;;;18.00;95.30;;;;;;5484861;26;19997;-71
2024/04/11 09:20:24;;;;;;;2.53;0.88;;;18.20;95.20;;;;;;5487976;25;19999;-71
2024/04/11 09:22:59;;;;;;;0.88;0.47;;;18.40;95.90;;;;;;5488908;26;20067;-71
2024/04/11 09:25:30;;;;;;;0.47;0.30;;;17.90;95.40;;;;;;5486691;25;19994;-71
2024/04/11 09:27:58;;;;;;;2.53;0.77;;;17.60;95.70;;;;;;5486031;25;19989;-72
2024/04/11 09:30:34;;;;;;;2.72;0.68;;;16.90;96.50;;;;;;5488836;25;20509;-71
2024/04/11 09:33:08;;;;;;;2.33;0.88;;;15.90;96.90;;;;;;5489518;25;20005;-72
2024/04/11 09:35:40;;;;;;;1.00;0.38;;;15.20;97.50;;;;;;5488593;25;19998;-71
2024/04/11 09:38:12;;;;;;;5.28;0.63;;;15.30;98.00;;;;;;5486781;26;20563;-71
2024/04/11 09:40:43;;;;;;;3.13;0.57;;;15.30;98.90;;;;;;5488314;25;20001;-71
2024/04/11 09:43:15;;;;;;;4.93;0.77;;;15.30;97.80;;;;;;5490438;26;20058;-71
2024/04/11 09:45:49;;;;;;;1.50;0.50;;;15.50;98.70;;;;;;5489742;25;21041;-72
2024/04/11 09:48:21;;;;;;;0.90;0.60;;;15.50;97.90;;;;;;5491608;26;20024;-71
2024/04/11 09:50:48;;;;;;;2.50;0.57;;;15.60;98.40;;;;;;5491132;25;20907;-71
2024/04/11 09:53:26;;;;;;;2.90;1.30;;;15.50;97.60;;;;;;5488647;25;20077;-71
2024/04/11 09:56:06;;;;;;;1.83;0.63;;;15.40;97.40;;;;;;5488521;26;20005;-71
2024/04/11 09:58:38;;;;;;;1.63;0.75;;;15.60;98.00;;;;;;5488496;25;20005;-72
2024/04/11 10:01:16;;;;;;;2.70;0.60;;;15.70;98.10;;;;;;5489514;25;20796;-72
2024/04/11 10:03:45;;;;;;;4.07;0.98;;;16.00;97.80;;;;;;5489928;25;20098;-72
2024/04/11 10:06:20;;;;;;;1.92;0.82;;;15.90;97.30;;;;;;5488310;25;20058;-71
2024/04/11 10:08:47;;;;;;;1.13;0.60;;;16.00;97.30;;;;;;5488189;26;20049;-72
2024/04/11 10:11:17;;;;;;;2.97;0.85;;;16.00;97.30;;;;;;5488401;26;20089;-72
2024/04/11 10:13:44;;;;;;;5.95;0.73;;;16.10;97.40;;;;;;5489709;25;20007;-72
2024/04/11 10:16:22;;;;;;;2.97;0.90;;;16.30;97.40;;;;;;5488313;25;20826;-71
2024/04/11 10:19:05;;;;;;;5.45;1.00;;;16.30;97.40;;;;;;5487708;26;20034;-71
2024/04/11 10:21:33;;;;;;;1.17;0.50;;;16.60;97.30;;;;;;5489133;25;20016;-71
2024/04/11 10:24:13;;;;;;;4.63;0.77;;;16.60;97.00;;;;;;5488678;25;20013;-71
2024/04/11 10:26:42;;;;;;;4.03;0.95;;;16.30;96.40;;;;;;5488771;26;20012;-71
2024/04/11 10:29:18;;;;;;;2.70;0.88;;;16.30;97.40;;;;;;5488710;25;20005;-71
2024/04/11 10:31:44;;;;;;;1.95;0.93;;;16.80;97.90;;;;;;5491305;26;20001;-71
2024/04/11 10:34:19;;;;;;;1.23;0.40;;;17.10;97.30;;;;;;5491331;26;21521;-71
2024/04/11 10:36:53;;;;;;;2.50;0.63;;;17.40;97.40;;;;;;5490743;26;20001;-72
2024/04/11 10:39:19;;;;;;;2.22;0.82;;;17.40;97.10;;;;;;5490816;25;20008;-72
2024/04/11 10:41:45;;;;;;;4.90;1.08;;;17.30;97.10;;;;;;5492454;26;20005;-72
2024/04/11 10:44:12;;;;;;;2.17;1.17;;;17.30;96.40;;;;;;5491451;25;20005;-71
2024/04/11 10:46:39;;;;;;;1.30;0.73;;;17.20;97.00;;;;;;5491000;25;20054;-72
2024/04/11 10:49:28;;;;;;;2.40;0.82;;;17.50;97.30;;;;;;5489295;26;20005;-71
2024/04/11 10:51:58;;;;;;;2.22;0.82;;;17.50;96.70;;;;;;5493586;25;20006;-71
2024/04/11 10:54:27;;;;;;;2.63;0.98;;;17.70;97.70;;;;;;5490531;25;20516;-72
2024/04/11 10:56:54;;;;;;;1.65;0.57;;;18.10;97.20;;;;;;5491310;26;20012;-72
2024/04/11 10:59:22;;;;;;;1.80;0.50;;;18.40;96.60;;;;;;5489937;26;20016;-71
2024/04/11 11:02:00;;;;;;;1.42;0.73;;;18.40;96.40;;;;;;5492309;25;20010;-71
2024/04/11 11:04:29;;;;;;;16.60;1.60;;;18.20;96.80;;;;;;5492453;26;20005;-71
2024/04/11 11:06:59;;;;;;;1.02;0.52;;;17.90;96.30;;;;;;5490570;25;21445;-71
2024/04/11 11:09:27;;;;;;;2.35;1.13;;;17.80;96.30;;;;;;5491929;25;20031;-71
2024/04/11 11:11:59;;;;;;;2.63;1.05;;;17.80;96.80;;;;;;5489930;25;20001;-71
2024/04/11 11:14:26;;;;;;;1.60;1.00;;;17.70;96.30;;;;;;5491187;25;20001;-71
2024/04/11 11:16:53;;;;;;;3.83;1.27;;;18.10;96.20;;;;;;5489677;25;21302;-72
2024/04/11 11:19:19;;;;;;;1.73;0.80;;;18.30;96.00;;;;;;5491586;25;20001;-71
2024/04/11 11:21:55;;;;;;;3.92;1.00;;;18.10;95.80;;;;;;5491731;25;20021;-71
2024/04/11 11:24:24;;;;;;;2.08;1.25;;;18.20;96.20;;;;;;5489330;25;20340;-71
2024/04/11 11:26:54;;;;;;;2.38;0.85;;;18.40;97.50;;;;;;5488302;26;20033;-71
2024/04/11 11:29:25;;;;;;;2.78;0.88;;;18.40;96.20;;;;;;5490082;25;20096;-72
2024/04/11 11:31:53;;;;;;;2.38;0.90;;;18.60;97.20;;;;;;5490464;25;20597;-72
2024/04/11 11:34:27;;;;;;;2.15;0.77;;;18.60;97.30;;;;;;5489633;26;20028;-71
2024/04/11 11:36:58;;;;;;;1.50;0.63;;;18.80;97.40;;;;;;5491623;25;20978;-71
2024/04/11 11:39:26;;;;;;;3.25;1.20;;;18.70;95.80;;;;;;5492406;25;20519;-71
2024/04/11 11:42:08;;;;;;;2.65;0.75;;;18.70;96.70;;;;;;5488651;26;20005;-71
2024/04/11 11:45:23;;;;;;;3.72;0.70;;;18.70;96.10;;;;;;5488525;26;20023;-71
2024/04/11 11:47:33;;;;;;;2.72;1.10;;;18.50;96.60;;;;;;5485038;26;20005;-70
2024/04/11 11:50:19;;;;;;;2.72;0.90;;;18.70;96.60;;;;;;5489533;26;19997;-72
2024/04/11 11:52:49;;;;;;;2.50;0.80;;;18.60;95.70;;;;;;5490435;26;20001;-71
2024/04/11 11:55:18;;;;;;;2.42;0.85;;;18.80;96.30;;;;;;5484419;25;20014;-71
2024/04/11 11:57:47;;;;;;;5.40;1.02;;;19.00;96.20;;;;;;5488561;26;19990;-71
2024/04/11 12:00:19;;;;;;;3.30;0.85;;;19.10;95.60;;;;;;5488064;26;20478;-72
2024/04/11 12:02:50;;;;;;;2.00;0.82;;;19.00;96.00;;;;;;5488374;26;20004;-71
2024/04/11 12:05:17;;;;;;;3.60;0.68;;;19.00;96.20;;;;;;5490696;25;20867;-72
2024/04/11 12:07:45;;;;;;;3.72;1.02;;;19.20;96.20;;;;;;5490656;25;20080;-72
2024/04/11 12:10:14;;;;;;;1.83;0.80;;;19.10;95.60;;;;;;5488511;25;20017;-72
2024/04/11 12:12:40;;;;;;;4.53;1.48;;;19.10;95.40;;;;;;5490742;26;20005;-72
2024/04/11 12:15:06;;;;;;;3.40;1.40;;;19.10;94.90;;;;;;5490773;26;20013;-72
2024/04/11 12:17:32;;;;;;;1.83;0.68;;;19.20;95.60;;;;;;5485024;26;19998;-72
2024/04/11 12:20:05;;;;;;;2.38;0.63;;;19.50;95.70;;;;;;5489432;26;20008;-72
2024/04/11 12:22:33;;;;;;;2.38;1.17;;;19.70;96.00;;;;;;5489099;25;20415;-72
2024/04/11 12:25:01;;;;;;;3.90;1.00;;;19.70;95.00;;;;;;5486808;26;19993;-72
2024/04/11 12:27:28;;;;;;;2.95;1.02;;;19.80;96.20;;;;;;5485476;26;20033;-72
2024/04/11 12:29:59;;;;;;;1.60;0.77;;;20.10;95.60;;;;;;5488090;25;20005;-72
2024/04/11 12:32:25;;;;;;;2.47;1.27;;;20.20;96.60;;;;;;5489773;25;20688;-72
2024/04/11 12:34:55;;;;;;;1.73;0.82;;;19.80;95.10;;;;;;5489598;25;20081;-72
2024/04/11 12:37:24;;;;;;;5.70;1.20;;;19.90;95.80;;;;;;5489686;25;20034;-72
2024/04/11 12:39:54;;;;;;;2.85;0.82;;;19.90;95.20;;;;;;5489178;25;20014;-71
2024/04/11 12:42:24;;;;;;;2.13;1.00;;;19.80;94.80;;;;;;5490341;26;20102;-72
2024/04/11 12:44:52;;;;;;;4.50;1.02;;;19.70;94.30;;;;;;5488262;25;20112;-72
2024/04/11 12:47:23;;;;;;;3.30;0.82;;;19.80;95.00;;;;;;5489698;25;20009;-72
2024/04/11 12:49:49;;;;;;;2.03;1.00;;;19.90;96.10;;;;;;5490182;25;20012;-72
2024/04/11 12:52:22;;;;;;;2.53;1.33;;;20.10;95.20;;;;;;5490075;26;20565;-72
2024/04/11 12:54:53;;;;;;;3.03;1.10;;;20.30;95.40;;;;;;5485240;25;20012;-71
2024/04/11 12:57:19;;;;;;;5.88;0.80;;;20.30;94.80;;;;;;5487586;26;20063;-72
2024/04/11 12:59:47;;;;;;;4.03;1.40;;;20.30;95.20;;;;;;5487650;26;20669;-72